Time;durP1;ratioP1;P1;durP2;ratioP2;P2;SDS_P1;SDS_P2;PMS_P1;PMS_P2;Temp;Humidity;BMP_temperature;BMP_pressure;BME280_temperature;BME280_humidity;BME280_pressure;Samples;Min_cycle;Max_cycle;Signal;HPM_P1;HPM_P2
2022/07/31 00:01:07;;;;;;;14.73;5.83;;;;;;;21.31;83.73;101633.78;5206088;28;20062;-72
2022/07/31 00:03:39;;;;;;;8.43;5.32;;;;;;;21.30;83.15;101637.47;5207985;28;20038;-71
2022/07/31 00:06:10;;;;;;;6.57;5.40;;;;;;;21.29;82.48;101630.47;5206270;28;20372;-72
2022/07/31 00:08:41;;;;;;;7.13;4.70;;;;;;;21.32;81.27;101630.94;5204302;28;20026;-72
2022/07/31 00:11:13;;;;;;;8.90;5.70;;;;;;;21.25;83.60;101626.50;5202351;28;20021;-72
2022/07/31 00:13:44;;;;;;;8.93;6.00;;;;;;;21.24;83.61;101631.00;5204780;28;20046;-71
2022/07/31 00:16:15;;;;;;;9.97;6.37;;;;;;;21.24;82.52;101628.34;5206773;28;20452;-72
2022/07/31 00:18:47;;;;;;;8.27;5.77;;;;;;;21.16;84.59;101624.94;5201078;28;20112;-72
2022/07/31 00:21:18;;;;;;;8.00;5.77;;;;;;;21.15;84.33;101624.13;5202459;28;20497;-72
2022/07/31 00:23:50;;;;;;;9.57;5.40;;;;;;;21.14;83.65;101620.63;5205115;28;20084;-72
2022/07/31 00:26:21;;;;;;;8.57;6.10;;;;;;;21.11;85.63;101620.16;5203429;28;20114;-72
2022/07/31 00:28:53;;;;;;;7.60;5.70;;;;;;;21.11;83.74;101618.31;5203959;28;20050;-72
2022/07/31 00:31:24;;;;;;;6.43;5.83;;;;;;;21.13;85.27;101623.47;5205970;28;20403;-71
2022/07/31 00:33:55;;;;;;;7.07;6.37;;;;;;;21.07;86.00;101622.34;5206032;28;20022;-72
2022/07/31 00:36:27;;;;;;;10.27;6.23;;;;;;;21.02;86.52;101635.38;5202985;28;20038;-71
2022/07/31 00:38:58;;;;;;;8.47;5.87;;;;;;;21.02;86.42;101635.38;5207433;28;20026;-72
2022/07/31 00:41:41;;;;;;;9.13;5.77;;;;;;;21.12;86.36;101643.13;5204500;28;20027;-72
2022/07/31 00:44:13;;;;;;;9.77;5.72;;;;;;;20.96;86.12;101636.09;5202445;28;20026;-72
2022/07/31 00:46:44;;;;;;;8.87;5.40;;;;;;;20.99;85.97;101630.41;5205534;28;20825;-72
2022/07/31 00:49:15;;;;;;;8.73;5.60;;;;;;;20.95;86.14;101634.47;5199571;28;20130;-72
2022/07/31 00:51:47;;;;;;;12.17;5.97;;;;;;;20.92;84.43;101637.47;5205179;28;20040;-71
2022/07/31 00:54:18;;;;;;;8.40;5.67;;;;;;;20.81;88.44;101632.56;5201628;28;20025;-71
2022/07/31 00:56:50;;;;;;;9.77;6.00;;;;;;;20.79;88.80;101623.91;5204666;28;20037;-72
2022/07/31 00:59:21;;;;;;;12.17;6.67;;;;;;;20.74;89.33;101624.44;5201785;28;20479;-71
2022/07/31 01:01:55;;;;;;;8.80;5.83;;;;;;;20.79;86.65;101624.72;5204356;28;20045;-73
2022/07/31 01:04:26;;;;;;;8.15;5.32;;;;;;;20.70;89.10;101609.00;5204568;28;20107;-72
2022/07/31 01:06:59;;;;;;;10.33;6.30;;;;;;;20.70;87.15;101609.84;5201705;28;20022;-71
2022/07/31 01:09:31;;;;;;;10.23;6.00;;;;;;;20.62;88.53;101607.25;5195506;28;20131;-71
2022/07/31 01:12:08;;;;;;;8.10;5.73;;;;;;;20.77;86.53;101618.78;5203653;28;20061;-73
2022/07/31 01:14:51;;;;;;;6.60;5.32;;;;;;;20.67;87.47;101617.34;5203221;28;20022;-72
2022/07/31 01:17:25;;;;;;;9.27;5.85;;;;;;;20.67;87.80;101622.69;5201814;28;20030;-71
2022/07/31 01:19:57;;;;;;;10.02;5.95;;;;;;;20.59;89.71;101628.88;5201224;28;20476;-72
2022/07/31 01:22:55;;;;;;;7.97;6.20;;;;;;;20.88;86.19;101628.19;5200559;28;20040;-72
2022/07/31 01:25:45;;;;;;;7.88;6.03;;;;;;;20.57;90.03;101628.22;5201524;28;20862;-71
2022/07/31 01:28:45;;;;;;;9.30;6.20;;;;;;;20.78;88.68;101614.28;5200216;28;20511;-72
2022/07/31 01:31:20;;;;;;;7.30;5.57;;;;;;;20.60;90.88;101609.22;5198553;28;20513;-72
2022/07/31 01:34:02;;;;;;;8.15;5.75;;;;;;;20.53;92.79;101610.94;5203940;28;20506;-72
2022/07/31 01:36:38;;;;;;;7.38;5.15;;;;;;;20.45;90.56;101605.66;5205621;28;20168;-71
2022/07/31 01:39:10;;;;;;;6.47;5.30;;;;;;;20.34;93.55;101605.06;5201205;28;20099;-71
2022/07/31 01:41:45;;;;;;;7.20;5.95;;;;;;;20.47;93.72;101615.13;5203303;28;20027;-71
2022/07/31 01:44:18;;;;;;;8.35;6.30;;;;;;;20.32;91.35;101601.75;5204040;28;20106;-72
2022/07/31 01:46:52;;;;;;;10.43;5.95;;;;;;;20.31;92.09;101604.59;5197758;28;20103;-72
2022/07/31 01:49:26;;;;;;;10.02;6.40;;;;;;;20.33;89.61;101607.88;5197415;28;20056;-72
2022/07/31 01:52:01;;;;;;;8.90;6.03;;;;;;;20.26;90.29;101612.25;5200972;28;20049;-71
2022/07/31 01:54:34;;;;;;;10.25;6.18;;;;;;;20.24;88.12;101612.44;5197353;28;20025;-73
2022/07/31 01:57:07;;;;;;;8.68;6.07;;;;;;;20.16;89.70;101607.16;5205171;28;20030;-72
2022/07/31 01:59:40;;;;;;;11.02;6.32;;;;;;;20.21;88.36;101604.81;5206245;28;20037;-71
2022/07/31 02:02:13;;;;;;;9.07;5.95;;;;;;;20.12;89.86;101601.38;5210470;28;20080;-71
2022/07/31 02:04:45;;;;;;;;;;;;;;;20.84;82.32;101600.25;5206272;28;20667;-71
2022/07/31 02:07:19;;;;;;;11.18;5.88;;;;;;;20.12;90.04;101612.00;5208702;28;19917;-72
2022/07/31 02:09:52;;;;;;;11.68;5.72;;;;;;;20.06;90.24;101602.03;5207414;28;20387;-71
2022/07/31 02:12:25;;;;;;;8.88;6.32;;;;;;;20.05;88.25;101599.56;5208675;28;20022;-71
2022/07/31 02:14:57;;;;;;;9.45;6.10;;;;;;;20.10;88.38;101606.00;5212148;28;20022;-72
2022/07/31 02:17:28;;;;;;;10.88;6.38;;;;;;;20.02;91.55;101606.06;5211104;28;20033;-71
2022/07/31 02:20:04;;;;;;;9.87;6.27;;;;;;;20.06;90.06;101602.03;5207376;28;20503;-72
2022/07/31 02:22:35;;;;;;;9.07;6.35;;;;;;;20.01;91.35;101591.09;5211149;28;20026;-72
2022/07/31 02:25:09;;;;;;;8.63;6.27;;;;;;;20.06;93.21;101593.25;5210899;28;20490;-71
2022/07/31 02:27:42;;;;;;;7.50;6.13;;;;;;;19.97;95.16;101604.94;5206759;28;20049;-72
2022/07/31 02:30:15;;;;;;;12.18;6.30;;;;;;;20.01;92.83;101609.72;5210156;28;20026;-72
2022/07/31 02:32:47;;;;;;;;;;;;;;;20.62;85.78;101608.06;5205756;28;20030;-71
2022/07/31 02:35:20;;;;;;;6.88;5.82;;;;;;;19.94;95.30;101608.75;5207284;28;19967;-71
2022/07/31 02:37:53;;;;;;;7.35;6.07;;;;;;;19.90;95.63;101600.28;5205709;28;20041;-71
2022/07/31 02:40:24;;;;;;;10.52;7.28;;;;;;;19.86;97.03;101600.81;5205736;28;20035;-72
2022/07/31 02:42:56;;;;;;;8.53;6.90;;;;;;;19.80;98.54;101596.19;5210343;28;20408;-71
2022/07/31 02:45:28;;;;;;;8.67;6.80;;;;;;;19.78;100.00;101608.84;5202784;28;20026;-72
2022/07/31 02:48:00;;;;;;;8.40;6.93;;;;;;;19.78;100.00;101600.84;5206703;28;20160;-71
2022/07/31 02:50:32;;;;;;;9.95;6.65;;;;;;;19.82;97.63;101591.53;5209241;28;20475;-72
2022/07/31 02:53:03;;;;;;;10.37;7.00;;;;;;;19.87;96.19;101595.31;5210367;28;20030;-71
2022/07/31 02:55:35;;;;;;;10.30;6.53;;;;;;;19.82;100.00;101596.84;5212211;28;20391;-72
2022/07/31 02:58:07;;;;;;;8.90;6.70;;;;;;;19.76;100.00;101595.69;5210898;28;20057;-73
2022/07/31 03:00:39;;;;;;;7.82;6.28;;;;;;;19.77;99.77;101585.88;5207235;28;20037;-71
2022/07/31 03:03:10;;;;;;;9.00;6.93;;;;;;;19.79;100.00;101574.09;5205817;28;20021;-71
2022/07/31 03:05:41;;;;;;;12.73;6.67;;;;;;;19.80;100.00;101580.22;5208028;28;20472;-72
2022/07/31 03:08:13;;;;;;;13.00;7.23;;;;;;;19.78;100.00;101588.38;5210839;28;20386;-71
2022/07/31 03:10:44;;;;;;;9.30;6.57;;;;;;;19.63;100.00;101572.31;5202490;28;20367;-71
2022/07/31 03:13:17;;;;;;;8.80;6.40;;;;;;;19.63;100.00;101582.13;5207153;28;20045;-71
2022/07/31 03:15:50;;;;;;;11.43;7.55;;;;;;;19.57;100.00;101582.78;5204469;28;20121;-71
2022/07/31 03:18:22;;;;;;;11.38;7.38;;;;;;;19.53;100.00;101579.63;5208592;28;20037;-71
2022/07/31 03:20:55;;;;;;;9.55;6.50;;;;;;;19.57;100.00;101578.28;5203351;28;20025;-71
2022/07/31 03:23:27;;;;;;;;;;;;;;;20.16;94.09;101577.91;5205880;28;20042;-71
2022/07/31 03:25:58;;;;;;;8.60;7.00;;;;;;;19.48;100.00;101567.88;5205919;28;19914;-73
2022/07/31 03:28:29;;;;;;;13.67;8.13;;;;;;;19.50;100.00;101574.66;5201889;28;20058;-71
2022/07/31 03:31:02;;;;;;;8.03;7.23;;;;;;;19.48;100.00;101573.19;5203740;28;20037;-73
2022/07/31 03:33:33;;;;;;;11.23;8.57;;;;;;;19.42;99.08;101574.69;5201746;28;20503;-72
2022/07/31 03:36:05;;;;;;;10.47;8.10;;;;;;;19.43;100.00;101571.88;5205327;28;20053;-72
2022/07/31 03:38:36;;;;;;;8.50;7.50;;;;;;;19.43;99.71;101569.22;5204621;28;20479;-71
2022/07/31 03:41:10;;;;;;;11.00;7.67;;;;;;;19.50;100.00;101565.84;5207147;28;20101;-72
2022/07/31 03:43:43;;;;;;;9.63;8.00;;;;;;;19.38;100.00;101560.91;5199808;28;20053;-71
2022/07/31 03:46:17;;;;;;;8.93;7.43;;;;;;;19.49;98.96;101570.34;5203407;28;20471;-71
2022/07/31 03:48:50;;;;;;;9.10;8.15;;;;;;;19.38;100.00;101568.03;5204791;28;20376;-71
2022/07/31 03:51:22;;;;;;;13.25;8.77;;;;;;;19.36;100.00;101568.22;5207309;28;20041;-71
2022/07/31 03:53:53;;;;;;;10.73;9.63;;;;;;;19.40;100.00;101564.22;5203120;28;20030;-71
2022/07/31 03:56:27;;;;;;;10.85;8.55;;;;;;;19.43;100.00;101573.66;5200008;28;20045;-71
2022/07/31 03:58:58;;;;;;;10.23;8.43;;;;;;;19.39;100.00;101573.19;5201569;28;20468;-71
2022/07/31 04:01:30;;;;;;;9.80;8.80;;;;;;;19.41;100.00;101563.22;5203576;28;20041;-71
2022/07/31 04:04:01;;;;;;;15.97;9.77;;;;;;;19.37;100.00;101571.72;5201092;28;20058;-73
2022/07/31 04:06:33;;;;;;;11.18;9.27;;;;;;;19.36;100.00;101570.88;5202355;28;20033;-71
2022/07/31 04:09:04;;;;;;;11.17;8.70;;;;;;;19.35;100.00;101571.03;5205295;28;20025;-71
2022/07/31 04:11:35;;;;;;;12.40;9.30;;;;;;;19.34;100.00;101578.19;5203501;28;20096;-71
2022/07/31 04:14:07;;;;;;;11.13;9.13;;;;;;;19.34;100.00;101572.03;5206639;28;20045;-71
2022/07/31 04:16:38;;;;;;;12.25;9.25;;;;;;;19.35;100.00;101568.38;5203601;28;20491;-72
2022/07/31 04:19:09;;;;;;;10.85;9.13;;;;;;;19.32;100.00;101574.03;5202530;28;20841;-71
2022/07/31 04:21:40;;;;;;;12.48;8.75;;;;;;;19.31;100.00;101577.69;5206248;28;20513;-71
2022/07/31 04:24:15;;;;;;;12.33;8.83;;;;;;;19.33;100.00;101583.69;5203696;28;20030;-71
2022/07/31 04:26:48;;;;;;;12.13;7.90;;;;;;;19.31;100.00;101596.28;5201928;28;20049;-71
2022/07/31 04:29:19;;;;;;;11.85;7.45;;;;;;;19.34;100.00;101585.34;5203725;28;20518;-71
2022/07/31 04:31:51;;;;;;;10.93;7.33;;;;;;;19.42;100.00;101580.00;5202109;28;20151;-71
2022/07/31 04:34:22;;;;;;;8.90;8.00;;;;;;;19.33;100.00;101576.53;5201820;28;20022;-71
2022/07/31 04:36:54;;;;;;;10.35;8.07;;;;;;;19.34;100.00;101585.34;5201673;28;20594;-71
2022/07/31 04:39:25;;;;;;;13.83;8.80;;;;;;;19.30;100.00;101584.84;5211266;28;20057;-72
2022/07/31 04:41:56;;;;;;;10.80;7.77;;;;;;;19.35;100.00;101581.66;5208768;28;20420;-71
2022/07/31 04:44:27;;;;;;;12.03;7.33;;;;;;;19.36;100.00;101578.84;5204454;28;20403;-71
2022/07/31 04:47:03;;;;;;;8.27;7.17;;;;;;;19.39;100.00;101580.31;5199796;28;20033;-72
2022/07/31 04:49:35;;;;;;;10.35;7.18;;;;;;;19.38;100.00;101576.84;5204887;28;20033;-72
2022/07/31 04:52:06;;;;;;;9.13;6.43;;;;;;;19.39;100.00;101582.97;5216189;28;20029;-71
2022/07/31 04:54:37;;;;;;;7.10;6.07;;;;;;;19.40;100.00;101580.19;5203695;28;20022;-71
2022/07/31 04:57:09;;;;;;;8.27;6.57;;;;;;;19.38;100.00;101576.03;5202336;28;20023;-71
2022/07/31 04:59:40;;;;;;;7.27;6.17;;;;;;;19.43;100.00;101578.97;5204179;28;20101;-71
2022/07/31 05:02:11;;;;;;;9.32;6.70;;;;;;;19.42;100.00;101578.16;5204630;28;20169;-72
2022/07/31 05:04:43;;;;;;;7.20;6.18;;;;;;;19.38;100.00;101570.69;5200658;28;20030;-71
2022/07/31 05:07:14;;;;;;;6.93;6.07;;;;;;;19.38;100.00;101574.19;5202354;28;20033;-71
2022/07/31 05:09:45;;;;;;;6.97;5.73;;;;;;;19.40;100.00;101579.34;5201513;28;20519;-71
2022/07/31 05:12:16;;;;;;;7.70;5.80;;;;;;;19.45;100.00;101574.34;5204418;28;20071;-72
2022/07/31 05:14:48;;;;;;;7.80;5.53;;;;;;;19.49;100.00;101566.84;5207373;28;20065;-71
2022/07/31 05:17:19;;;;;;;8.85;5.88;;;;;;;19.47;100.00;101568.84;5202609;28;20112;-71
2022/07/31 05:19:50;;;;;;;8.17;5.13;;;;;;;19.50;100.00;101565.84;5198973;28;20112;-71
2022/07/31 05:22:21;;;;;;;6.95;4.65;;;;;;;19.50;100.00;101564.03;5204479;28;20031;-71
2022/07/31 05:24:53;;;;;;;5.80;4.82;;;;;;;19.50;100.00;101569.34;5200223;28;20040;-71
2022/07/31 05:27:24;;;;;;;5.67;4.33;;;;;;;19.53;100.00;101576.16;5204357;28;20014;-73
2022/07/31 05:29:55;;;;;;;7.33;4.47;;;;;;;19.50;100.00;101561.38;5202378;28;20034;-72
2022/07/31 05:32:27;;;;;;;6.03;4.30;;;;;;;19.57;100.00;101562.34;5202644;28;20034;-72
2022/07/31 05:34:58;;;;;;;5.30;3.97;;;;;;;19.55;100.00;101560.88;5202854;28;20022;-72
2022/07/31 05:37:29;;;;;;;5.93;4.30;;;;;;;19.56;100.00;101552.72;5198815;28;20033;-72
2022/07/31 05:40:00;;;;;;;4.97;4.40;;;;;;;19.55;100.00;101555.56;5203097;28;20026;-72
2022/07/31 05:42:32;;;;;;;5.93;3.80;;;;;;;19.56;100.00;101559.88;5203054;28;20041;-72
2022/07/31 05:45:03;;;;;;;6.90;4.10;;;;;;;19.52;100.00;101558.56;5206232;28;20080;-72
2022/07/31 05:47:35;;;;;;;8.47;4.30;;;;;;;19.56;100.00;101568.66;5203975;28;20064;-73
2022/07/31 05:50:07;;;;;;;4.85;3.92;;;;;;;19.60;100.00;101567.31;5197625;28;20038;-73
2022/07/31 05:52:38;;;;;;;4.75;3.50;;;;;;;19.61;100.00;101557.50;5200950;28;20060;-72
2022/07/31 05:55:10;;;;;;;3.70;3.30;;;;;;;19.64;100.00;101559.84;5198352;28;20037;-73
2022/07/31 05:57:41;;;;;;;6.30;3.60;;;;;;;19.71;100.00;101566.16;5201164;28;20399;-73
2022/07/31 06:00:15;;;;;;;6.53;3.30;;;;;;;19.64;100.00;101560.69;5201917;28;20056;-73
2022/07/31 06:02:46;;;;;;;6.47;4.15;;;;;;;19.59;100.00;101557.69;5198576;28;20454;-72
2022/07/31 06:05:17;;;;;;;4.90;3.70;;;;;;;19.69;100.00;101562.81;5199446;28;20030;-72
2022/07/31 06:07:50;;;;;;;5.67;3.67;;;;;;;19.71;100.00;101550.19;5203128;28;20022;-71
2022/07/31 06:10:21;;;;;;;5.03;3.38;;;;;;;19.77;100.00;101562.78;5204522;28;20376;-71
2022/07/31 06:12:53;;;;;;;6.97;4.17;;;;;;;19.79;100.00;101563.44;5198494;28;20030;-71
2022/07/31 06:15:25;;;;;;;6.57;3.65;;;;;;;19.79;100.00;101567.94;5202247;28;20030;-71
2022/07/31 06:17:56;;;;;;;4.80;3.77;;;;;;;19.81;100.00;101561.47;5203841;28;20034;-71
2022/07/31 06:20:28;;;;;;;4.83;4.00;;;;;;;19.78;100.00;101558.31;5201785;28;20065;-71
2022/07/31 06:22:59;;;;;;;5.30;3.20;;;;;;;19.85;100.00;101560.13;5206304;28;20130;-70
2022/07/31 06:25:30;;;;;;;6.80;4.07;;;;;;;19.81;100.00;101557.94;5203221;28;20030;-71
2022/07/31 06:28:02;;;;;;;4.23;3.70;;;;;;;19.83;100.00;101555.97;5203861;28;20333;-71
2022/07/31 06:30:33;;;;;;;4.67;3.47;;;;;;;19.91;100.00;101555.91;5203631;28;20030;-71
2022/07/31 06:33:05;;;;;;;7.23;4.00;;;;;;;19.93;100.00;101552.09;5201543;28;20060;-71
2022/07/31 06:35:36;;;;;;;4.70;3.40;;;;;;;20.01;100.00;101550.38;5201982;28;20022;-71
2022/07/31 06:38:07;;;;;;;6.93;4.03;;;;;;;20.00;100.00;101544.25;5204401;28;20014;-71
2022/07/31 06:40:38;;;;;;;5.30;3.93;;;;;;;20.02;100.00;101552.03;5200273;28;20026;-72
2022/07/31 06:43:10;;;;;;;13.53;3.93;;;;;;;20.10;100.00;101551.97;5198363;28;20038;-72
2022/07/31 06:45:41;;;;;;;4.60;3.50;;;;;;;20.12;100.00;101552.66;5203571;28;20048;-72
2022/07/31 06:48:13;;;;;;;5.90;4.30;;;;;;;20.05;100.00;101554.34;5207082;28;20018;-71
2022/07/31 06:50:46;;;;;;;5.77;4.20;;;;;;;20.13;100.00;101564.94;5206566;28;20510;-71
2022/07/31 06:53:17;;;;;;;8.00;5.07;;;;;;;20.18;100.00;101559.91;5207020;28;20338;-71
2022/07/31 06:55:49;;;;;;;7.20;4.30;;;;;;;20.19;100.00;101561.56;5204965;28;20018;-72
2022/07/31 06:58:20;;;;;;;6.63;4.30;;;;;;;20.24;100.00;101553.06;5206262;28;20044;-72
2022/07/31 07:00:51;;;;;;;6.07;5.10;;;;;;;20.28;100.00;101549.06;5203769;28;20026;-71
2022/07/31 07:03:22;;;;;;;6.20;5.10;;;;;;;20.36;100.00;101549.00;5205897;28;20026;-72
2022/07/31 07:05:54;;;;;;;6.47;4.60;;;;;;;20.44;100.00;101559.56;5206817;28;20034;-71
2022/07/31 07:08:25;;;;;;;7.07;4.70;;;;;;;20.46;100.00;101554.91;5203018;28;20105;-72
2022/07/31 07:10:56;;;;;;;6.43;5.13;;;;;;;20.49;100.00;101543.91;5202730;28;20044;-72
2022/07/31 07:13:28;;;;;;;6.90;5.67;;;;;;;20.60;100.00;101551.50;5200043;28;20507;-71
2022/07/31 07:15:59;;;;;;;6.77;5.67;;;;;;;20.69;100.00;101548.78;5201605;28;20112;-72
2022/07/31 07:18:30;;;;;;;8.23;6.40;;;;;;;20.75;100.00;101559.53;5199178;28;20365;-72
2022/07/31 07:21:03;;;;;;;10.50;6.70;;;;;;;20.70;100.00;101550.44;5206293;28;20123;-72
2022/07/31 07:23:34;;;;;;;9.00;7.45;;;;;;;20.93;100.00;101555.72;5205027;28;20314;-72
2022/07/31 07:26:06;;;;;;;7.87;6.50;;;;;;;20.99;100.00;101552.34;5209217;28;20042;-72
2022/07/31 07:28:38;;;;;;;10.27;6.83;;;;;;;21.10;100.00;101550.06;5205497;28;20051;-72
2022/07/31 07:31:09;;;;;;;9.27;7.13;;;;;;;21.26;100.00;101551.72;5208149;28;20113;-72
2022/07/31 07:33:40;;;;;;;10.13;6.87;;;;;;;21.27;100.00;101547.22;5204413;28;20034;-72
2022/07/31 07:36:12;;;;;;;9.47;7.83;;;;;;;21.37;100.00;101545.16;5199575;28;20038;-72
2022/07/31 07:38:43;;;;;;;8.97;7.07;;;;;;;21.42;100.00;101544.59;5201901;28;20034;-72
2022/07/31 07:41:14;;;;;;;10.27;8.93;;;;;;;21.47;100.00;101540.34;5202042;28;20129;-72
2022/07/31 07:43:46;;;;;;;13.40;8.63;;;;;;;21.47;100.00;101542.19;5206167;28;20459;-72
2022/07/31 07:46:17;;;;;;;10.87;7.90;;;;;;;21.57;100.00;101538.22;5203662;28;20058;-72
2022/07/31 07:48:49;;;;;;;9.63;7.73;;;;;;;21.71;100.00;101535.75;5206655;28;20022;-72
2022/07/31 07:51:21;;;;;;;11.05;8.48;;;;;;;21.79;100.00;101540.97;5204485;28;20113;-72
2022/07/31 07:53:52;;;;;;;10.43;7.73;;;;;;;21.77;100.00;101542.97;5201375;28;20128;-72
2022/07/31 07:56:23;;;;;;;9.47;8.27;;;;;;;21.83;100.00;101542.25;5205613;28;20021;-72
2022/07/31 07:58:55;;;;;;;8.03;7.07;;;;;;;21.72;100.00;101532.06;5207003;28;20598;-72
2022/07/31 08:01:27;;;;;;;10.73;8.73;;;;;;;21.83;100.00;101540.41;5201521;28;20031;-72
2022/07/31 08:03:58;;;;;;;9.40;7.73;;;;;;;21.75;100.00;101542.34;5202032;28;20558;-72
2022/07/31 08:06:29;;;;;;;9.27;8.33;;;;;;;21.86;100.00;101542.69;5204780;28;20214;-72
2022/07/31 08:09:00;;;;;;;9.10;8.27;;;;;;;21.92;100.00;101541.09;5207368;28;20052;-72
2022/07/31 08:11:32;;;;;;;9.53;8.57;;;;;;;22.01;100.00;101533.78;5203730;28;20587;-72
2022/07/31 08:14:03;;;;;;;9.87;8.73;;;;;;;22.03;100.00;101532.59;5206842;28;20037;-72
2022/07/31 08:16:34;;;;;;;10.37;7.80;;;;;;;22.27;100.00;101535.94;5204335;28;20026;-72
2022/07/31 08:19:05;;;;;;;12.23;8.00;;;;;;;22.35;100.00;101533.19;5197157;28;20045;-72
2022/07/31 08:21:38;;;;;;;9.53;8.20;;;;;;;22.48;100.00;101530.63;5201232;28;20483;-72
2022/07/31 08:24:12;;;;;;;8.23;6.93;;;;;;;22.72;100.00;101531.22;5202692;28;20018;-72
2022/07/31 08:29:33;;;;;;;11.00;9.13;;;;;;;22.49;100.00;101534.13;5204620;28;20241;-72
2022/07/31 08:32:05;;;;;;;9.10;7.57;;;;;;;22.61;100.00;101526.41;5200918;28;20030;-72
2022/07/31 08:34:37;;;;;;;8.33;7.17;;;;;;;22.61;100.00;101529.06;5201747;28;20072;-72
2022/07/31 08:37:08;;;;;;;8.43;7.40;;;;;;;22.55;100.00;101531.50;5200874;28;20037;-72
2022/07/31 08:39:39;;;;;;;8.80;7.87;;;;;;;22.63;100.00;101538.56;5202221;28;20117;-72
2022/07/31 08:42:11;;;;;;;8.17;7.37;;;;;;;22.61;100.00;101537.09;5204565;28;20227;-72
2022/07/31 08:44:44;;;;;;;9.30;7.50;;;;;;;22.58;100.00;101532.97;5201938;28;20041;-72
2022/07/31 08:47:16;;;;;;;;;;;;;;;23.19;100.00;101535.91;5201364;28;20030;-72
2022/07/31 08:49:48;;;;;;;9.60;7.00;;;;;;;22.64;100.00;101532.19;5201816;28;19924;-72
2022/07/31 08:52:23;;;;;;;8.50;7.60;;;;;;;22.55;100.00;101536.84;5202126;28;20495;-72
2022/07/31 08:54:55;;;;;;;9.05;7.05;;;;;;;22.44;100.00;101532.03;5202186;28;20030;-72
2022/07/31 08:57:27;;;;;;;7.80;6.83;;;;;;;22.50;100.00;101543.78;5201113;28;20498;-72
2022/07/31 08:59:58;;;;;;;7.00;6.23;;;;;;;22.55;100.00;101536.84;5202846;28;20030;-72
2022/07/31 09:02:31;;;;;;;7.93;6.77;;;;;;;22.64;100.00;101547.41;5203180;28;20029;-72
2022/07/31 09:05:03;;;;;;;7.22;6.22;;;;;;;22.68;100.00;101535.31;5200352;28;20023;-72
2022/07/31 09:07:35;;;;;;;;;;;;;;;23.27;100.00;101530.41;5201895;28;20030;-72
2022/07/31 09:10:27;;;;;;;7.93;6.10;;;;;;;22.88;100.00;101535.44;5202928;28;19917;-71
2022/07/31 09:12:58;;;;;;;8.03;6.60;;;;;;;22.85;100.00;101517.97;5201635;28;20521;-72
2022/07/31 09:15:30;;;;;;;7.43;6.40;;;;;;;22.94;100.00;101527.50;5200898;28;20333;-72
2022/07/31 09:18:01;;;;;;;10.67;6.33;;;;;;;23.04;100.00;101522.66;5201738;28;20076;-72
2022/07/31 09:20:32;;;;;;;7.47;6.63;;;;;;;23.06;100.00;101517.94;5204201;28;20099;-72
2022/07/31 09:23:06;;;;;;;8.67;5.90;;;;;;;23.28;100.00;101515.19;5204649;28;20467;-72
2022/07/31 09:25:37;;;;;;;7.88;6.28;;;;;;;23.30;100.00;101521.19;5206836;28;20045;-72
2022/07/31 09:28:09;;;;;;;8.10;5.70;;;;;;;23.41;100.00;101520.63;5198437;28;20050;-72
2022/07/31 09:30:41;;;;;;;6.27;5.53;;;;;;;23.53;100.00;101527.03;5199453;28;20834;-72
2022/07/31 09:33:17;;;;;;;12.05;6.47;;;;;;;23.55;100.00;101530.31;5198742;28;20019;-72
2022/07/31 09:35:50;;;;;;;7.03;5.80;;;;;;;23.64;100.00;101527.47;5200582;28;20055;-72
2022/07/31 09:38:29;;;;;;;7.25;6.30;;;;;;;23.87;100.00;101522.69;5194765;28;20030;-73
2022/07/31 09:41:11;;;;;;;10.82;6.03;;;;;;;24.17;100.00;101524.97;5200622;28;20161;-72
2022/07/31 09:43:42;;;;;;;8.75;6.20;;;;;;;24.27;95.38;101525.41;5199350;28;20161;-72
2022/07/31 09:46:14;;;;;;;7.93;5.40;;;;;;;24.57;92.67;101515.16;5199499;28;20115;-72
2022/07/31 09:48:51;;;;;;;8.93;6.00;;;;;;;24.66;91.50;101510.41;5195665;28;20041;-73
2022/07/31 09:51:22;;;;;;;6.90;5.57;;;;;;;24.68;90.27;101521.75;5199283;28;20029;-73
2022/07/31 09:53:55;;;;;;;10.30;5.33;;;;;;;24.77;87.85;101515.16;5202533;28;20057;-72
2022/07/31 09:56:33;;;;;;;6.28;5.07;;;;;;;24.87;87.15;101514.75;5200909;28;20034;-72
2022/07/31 09:59:07;;;;;;;5.30;4.70;;;;;;;25.05;84.68;101503.38;5198348;28;20042;-72
2022/07/31 10:01:40;;;;;;;5.47;4.15;;;;;;;25.16;84.21;101500.91;5200131;28;20489;-72
2022/07/31 10:04:11;;;;;;;7.03;4.47;;;;;;;25.19;83.25;101502.31;5200413;28;20479;-72
2022/07/31 10:06:46;;;;;;;6.47;4.03;;;;;;;25.42;83.97;101507.19;5200054;28;20037;-73
2022/07/31 10:09:19;;;;;;;4.22;3.83;;;;;;;25.35;85.21;101515.28;5198186;28;20026;-72
2022/07/31 10:11:53;;;;;;;8.80;3.67;;;;;;;25.27;83.40;101510.16;5198582;28;20720;-72
2022/07/31 10:14:31;;;;;;;5.72;3.75;;;;;;;25.43;82.12;101519.59;5206411;28;20036;-72
2022/07/31 10:17:03;;;;;;;5.38;4.15;;;;;;;25.05;82.58;101511.41;5203642;28;20021;-72
2022/07/31 10:19:37;;;;;;;6.05;4.10;;;;;;;25.05;81.24;101506.06;5202772;28;20125;-72
2022/07/31 10:22:11;;;;;;;5.30;3.70;;;;;;;25.04;83.00;101499.03;5205226;28;20447;-72
2022/07/31 10:24:46;;;;;;;4.70;3.00;;;;;;;25.10;82.53;101507.09;5205694;28;20033;-72
2022/07/31 10:27:18;;;;;;;6.53;3.13;;;;;;;25.25;81.19;101504.16;5200348;28;20045;-72
2022/07/31 10:29:50;;;;;;;6.22;3.63;;;;;;;25.20;79.93;101495.94;5207402;28;20022;-72
2022/07/31 10:32:21;;;;;;;4.77;3.20;;;;;;;25.33;80.19;101501.25;5204134;28;20104;-72
2022/07/31 10:34:53;;;;;;;4.20;2.90;;;;;;;25.31;78.02;101487.25;5204020;28;20022;-72
2022/07/31 10:37:37;;;;;;;5.50;3.30;;;;;;;25.60;77.12;101498.44;5204043;28;20403;-72
2022/07/31 10:40:40;;;;;;;5.72;3.00;;;;;;;25.73;77.19;101498.41;5202804;28;20318;-72
2022/07/31 10:43:26;;;;;;;6.25;2.88;;;;;;;25.76;76.84;101495.28;5206662;28;20037;-72
2022/07/31 10:45:58;;;;;;;6.55;3.33;;;;;;;25.60;75.94;101498.44;5199758;28;21100;-72
2022/07/31 10:48:29;;;;;;;6.55;3.40;;;;;;;25.47;76.51;101494.78;5201474;28;20036;-72
2022/07/31 10:51:14;;;;;;;4.10;2.90;;;;;;;25.58;77.86;101490.63;5205151;28;20040;-72
2022/07/31 10:53:57;;;;;;;4.00;3.10;;;;;;;25.47;75.61;101492.13;5203276;28;20029;-72
2022/07/31 10:56:38;;;;;;;;;;;;;;;25.91;73.14;101482.44;5204360;28;20042;-72
2022/07/31 10:59:10;;;;;;;4.93;2.78;;;;;;;25.34;78.04;101491.34;5205269;28;20282;-72
2022/07/31 11:01:49;;;;;;;4.60;2.80;;;;;;;25.50;78.10;101482.00;5204203;28;20026;-72
2022/07/31 11:04:26;;;;;;;5.07;2.83;;;;;;;25.46;76.79;101474.38;5205862;28;20311;-72
2022/07/31 11:06:58;;;;;;;4.90;2.67;;;;;;;25.56;77.11;101479.28;5204045;28;20117;-72
2022/07/31 11:09:29;;;;;;;4.20;2.57;;;;;;;25.75;76.09;101476.69;5204855;28;20117;-72
2022/07/31 11:12:00;;;;;;;3.17;2.70;;;;;;;25.76;75.56;101472.97;5195929;28;20218;-72
2022/07/31 11:14:39;;;;;;;3.53;2.60;;;;;;;25.91;76.86;101477.06;5206393;28;20030;-72
2022/07/31 11:17:10;;;;;;;5.13;2.60;;;;;;;25.98;76.96;101471.63;5202251;28;20480;-72
2022/07/31 11:19:42;;;;;;;5.17;3.00;;;;;;;26.15;75.09;101480.00;5205976;28;20060;-72
2022/07/31 11:22:16;;;;;;;3.92;2.90;;;;;;;26.04;74.63;101467.25;5201470;28;20061;-72
2022/07/31 11:24:54;;;;;;;3.92;2.92;;;;;;;26.39;74.12;101471.09;5207352;28;20067;-72
2022/07/31 11:27:32;;;;;;;4.10;2.67;;;;;;;26.49;73.09;101467.16;5205131;28;20328;-71
2022/07/31 11:30:05;;;;;;;4.70;2.55;;;;;;;26.61;70.31;101468.06;5203856;28;20108;-71
2022/07/31 11:32:37;;;;;;;5.43;2.35;;;;;;;26.77;69.35;101469.34;5205968;28;20095;-71
2022/07/31 11:35:08;;;;;;;5.23;2.90;;;;;;;26.88;66.71;101463.22;5209450;28;20026;-71
2022/07/31 11:37:42;;;;;;;3.87;2.50;;;;;;;26.87;66.58;101457.03;5203258;28;20519;-71
2022/07/31 11:40:14;;;;;;;2.95;2.30;;;;;;;26.74;68.83;101451.78;5204414;28;20026;-71
2022/07/31 11:42:45;;;;;;;4.13;2.80;;;;;;;26.84;67.98;101449.41;5201263;28;20041;-71
2022/07/31 11:45:16;;;;;;;7.37;2.43;;;;;;;26.77;67.05;101450.53;5198830;28;20141;-71
2022/07/31 11:47:50;;;;;;;2.77;2.30;;;;;;;26.78;66.87;101449.47;5203356;28;20034;-71